sensor_id;sensor_type;location;lat;lon;timestamp;pressure;altitude;pressure_sealevel;temperature;humidity
11525;BME280;5819;49.648;8.330;2023-01-28T00:00:04;101249.50;;;2.95;100.00
11525;BME280;5819;49.648;8.330;2023-01-28T00:02:34;101246.09;;;2.96;100.00
11525;BME280;5819;49.648;8.330;2023-01-28T00:05:02;101244.31;;;2.81;100.00
11525;BME280;5819;49.648;8.330;2023-01-28T00:07:31;101245.22;;;2.93;100.00
11525;BME280;5819;49.648;8.330;2023-01-28T00:09:59;101248.63;;;2.84;100.00
11525;BME280;5819;49.648;8.330;2023-01-28T00:12:27;101244.31;;;2.81;100.00
11525;BME280;5819;49.648;8.330;2023-01-28T00:14:55;101237.47;;;2.79;100.00
11525;BME280;5819;49.648;8.330;2023-01-28T00:17:25;101241.72;;;2.81;100.00
11525;BME280;5819;49.648;8.330;2023-01-28T00:19:54;101238.31;;;2.76;100.00
11525;BME280;5819;49.648;8.330;2023-01-28T00:22:25;101237.47;;;2.83;100.00
11525;BME280;5819;49.648;8.330;2023-01-28T00:24:55;101236.56;;;2.77;100.00
11525;BME280;5819;49.648;8.330;2023-01-28T00:27:27;101234.88;;;2.77;100.00
11525;BME280;5819;49.648;8.330;2023-01-28T00:29:58;101237.47;;;2.76;100.00
11525;BME280;5819;49.648;8.330;2023-01-28T00:32:38;101234.03;;;2.72;100.00
11525;BME280;5819;49.648;8.330;2023-01-28T00:35:12;101241.69;;;2.66;100.00
11525;BME280;5819;49.648;8.330;2023-01-28T00:37:45;101234.03;;;2.81;100.00
11525;BME280;5819;49.648;8.330;2023-01-28T00:40:17;101232.34;;;2.83;100.00
11525;BME280;5819;49.648;8.330;2023-01-28T00:42:49;101230.63;;;2.76;100.00
11525;BME280;5819;49.648;8.330;2023-01-28T00:45:19;101231.47;;;2.78;100.00
11525;BME280;5819;49.648;8.330;2023-01-28T00:47:49;101235.69;;;2.69;100.00
11525;BME280;5819;49.648;8.330;2023-01-28T00:50:18;101228.00;;;2.67;100.00
11525;BME280;5819;49.648;8.330;2023-01-28T00:52:47;101233.16;;;2.73;100.00
11525;BME280;5819;49.648;8.330;2023-01-28T00:55:16;101234.88;;;2.74;100.00
11525;BME280;5819;49.648;8.330;2023-01-28T00:57:44;101244.25;;;2.69;100.00
11525;BME280;5819;49.648;8.330;2023-01-28T01:00:12;101241.72;;;2.77;100.00
11525;BME280;5819;49.648;8.330;2023-01-28T01:02:41;101235.69;;;2.60;100.00
11525;BME280;5819;49.648;8.330;2023-01-28T01:05:11;101239.16;;;2.77;100.00
11525;BME280;5819;49.648;8.330;2023-01-28T01:07:40;101234.03;;;2.72;100.00
11525;BME280;5819;49.648;8.330;2023-01-28T01:10:10;101239.13;;;2.63;100.00
11525;BME280;5819;49.648;8.330;2023-01-28T01:12:38;101237.38;;;2.56;100.00
11525;BME280;5819;49.648;8.330;2023-01-28T01:15:07;101234.00;;;2.68;100.00
11525;BME280;5819;49.648;8.330;2023-01-28T01:17:36;101237.41;;;2.65;100.00
11525;BME280;5819;49.648;8.330;2023-01-28T01:20:07;101251.94;;;2.60;100.00
11525;BME280;5819;49.648;8.330;2023-01-28T01:22:37;101246.78;;;2.56;100.00
11525;BME280;5819;49.648;8.330;2023-01-28T01:25:06;101240.81;;;2.61;100.00
11525;BME280;5819;49.648;8.330;2023-01-28T01:27:35;101248.50;;;2.58;100.00
11525;BME280;5819;49.648;8.330;2023-01-28T01:30:04;101251.91;;;2.54;100.00
11525;BME280;5819;49.648;8.330;2023-01-28T01:32:33;101255.34;;;2.56;100.00
11525;BME280;5819;49.648;8.330;2023-01-28T01:35:02;101259.63;;;2.56;100.00
11525;BME280;5819;49.648;8.330;2023-01-28T01:37:33;101257.00;;;2.50;100.00
11525;BME280;5819;49.648;8.330;2023-01-28T01:40:04;101246.78;;;2.57;100.00
11525;BME280;5819;49.648;8.330;2023-01-28T01:42:32;101253.59;;;2.49;100.00
11525;BME280;5819;49.648;8.330;2023-01-28T01:45:04;101260.50;;;2.56;100.00
11525;BME280;5819;49.648;8.330;2023-01-28T01:47:38;101256.16;;;2.49;100.00
11525;BME280;5819;49.648;8.330;2023-01-28T01:50:12;101251.94;;;2.65;100.00
11525;BME280;5819;49.648;8.330;2023-01-28T01:52:44;101270.78;;;2.62;100.00
11525;BME280;5819;49.648;8.330;2023-01-28T01:55:17;101257.00;;;2.50;100.00
11525;BME280;5819;49.648;8.330;2023-01-28T01:57:48;101265.56;;;2.47;100.00
11525;BME280;5819;49.648;8.330;2023-01-28T02:00:18;101263.06;;;2.56;100.00
11525;BME280;5819;49.648;8.330;2023-01-28T02:02:47;101265.63;;;2.58;100.00
11525;BME280;5819;49.648;8.330;2023-01-28T02:05:18;101263.91;;;2.52;100.00
11525;BME280;5819;49.648;8.330;2023-01-28T02:07:51;101265.63;;;2.56;100.00
11525;BME280;5819;49.648;8.330;2023-01-28T02:10:22;101269.91;;;2.56;100.00
11525;BME280;5819;49.648;8.330;2023-01-28T02:12:54;101271.66;;;2.69;100.00
11525;BME280;5819;49.648;8.330;2023-01-28T02:15:25;101269.09;;;2.67;100.00
11525;BME280;5819;49.648;8.330;2023-01-28T02:17:55;101263.97;;;2.70;100.00
11525;BME280;5819;49.648;8.330;2023-01-28T02:20:26;101271.63;;;2.58;100.00
11525;BME280;5819;49.648;8.330;2023-01-28T02:23:11;101275.88;;;2.58;100.00
11525;BME280;5819;49.648;8.330;2023-01-28T02:28:54;101267.28;;;2.44;100.00
11525;BME280;5819;49.648;8.330;2023-01-28T02:31:29;101279.25;;;2.49;100.00
11525;BME280;5819;49.648;8.330;2023-01-28T02:34:04;101272.47;;;2.57;100.00
11525;BME280;5819;49.648;8.330;2023-01-28T02:36:40;101275.91;;;2.65;100.00
11525;BME280;5819;49.648;8.330;2023-01-28T02:39:15;101275.00;;;2.51;100.00
11525;BME280;5819;49.648;8.330;2023-01-28T02:41:49;101277.56;;;2.51;100.00
11525;BME280;5819;49.648;8.330;2023-01-28T02:44:20;101275.03;;;2.57;100.00
11525;BME280;5819;49.648;8.330;2023-01-28T02:46:51;101281.91;;;2.60;100.00
11525;BME280;5819;49.648;8.330;2023-01-28T02:49:40;101270.72;;;2.47;100.00
11525;BME280;5819;49.648;8.330;2023-01-28T02:52:34;101280.06;;;2.36;100.00
11525;BME280;5819;49.648;8.330;2023-01-28T02:55:29;101277.47;;;2.34;100.00
11525;BME280;5819;49.648;8.330;2023-01-28T02:58:06;101279.25;;;2.43;100.00
11525;BME280;5819;49.648;8.330;2023-01-28T03:00:44;101277.59;;;2.56;100.00
11525;BME280;5819;49.648;8.330;2023-01-28T03:03:17;101277.53;;;2.47;100.00
11525;BME280;5819;49.648;8.330;2023-01-28T03:05:50;101279.22;;;2.40;100.00
11525;BME280;5819;49.648;8.330;2023-01-28T03:08:34;101280.03;;;2.33;100.00
11525;BME280;5819;49.648;8.330;2023-01-28T03:11:22;101283.50;;;2.41;100.00
11525;BME280;5819;49.648;8.330;2023-01-28T03:14:09;101276.63;;;2.37;100.00
11525;BME280;5819;49.648;8.330;2023-01-28T03:16:59;101286.06;;;2.41;100.00
11525;BME280;5819;49.648;8.330;2023-01-28T03:19:45;101288.69;;;2.47;100.00
11525;BME280;5819;49.648;8.330;2023-01-28T03:22:36;101286.91;;;2.37;100.00
11525;BME280;5819;49.648;8.330;2023-01-28T03:25:26;101292.06;;;2.40;100.00
11525;BME280;5819;49.648;8.330;2023-01-28T03:28:16;101294.59;;;2.34;100.00
11525;BME280;5819;49.648;8.330;2023-01-28T03:31:06;101296.25;;;2.27;100.00
11525;BME280;5819;49.648;8.330;2023-01-28T03:33:57;101293.69;;;2.27;100.00
11525;BME280;5819;49.648;8.330;2023-01-28T03:36:45;101291.28;;;2.52;100.00
11525;BME280;5819;49.648;8.330;2023-01-28T03:39:43;101301.53;;;2.47;100.00
11525;BME280;5819;49.648;8.330;2023-01-28T03:42:13;101303.16;;;2.36;100.00
11525;BME280;5819;49.648;8.330;2023-01-28T03:45:01;101303.94;;;2.23;100.00
11525;BME280;5819;49.648;8.330;2023-01-28T03:47:31;101308.22;;;2.25;100.00
11525;BME280;5819;49.648;8.330;2023-01-28T03:50:03;101305.75;;;2.42;100.00
11525;BME280;5819;49.648;8.330;2023-01-28T03:52:40;101311.66;;;2.24;100.00
11525;BME280;5819;49.648;8.330;2023-01-28T03:55:22;101310.88;;;2.39;100.00
11525;BME280;5819;49.648;8.330;2023-01-28T03:57:51;101304.03;;;2.37;100.00
11525;BME280;5819;49.648;8.330;2023-01-28T04:00:19;101318.50;;;2.24;100.00
11525;BME280;5819;49.648;8.330;2023-01-28T04:02:48;101314.19;;;2.21;100.00
11525;BME280;5819;49.648;8.330;2023-01-28T04:05:20;101318.44;;;2.19;100.00
11525;BME280;5819;49.648;8.330;2023-01-28T04:07:49;101312.47;;;2.25;100.00
11525;BME280;5819;49.648;8.330;2023-01-28T04:10:37;101310.81;;;2.33;100.00
11525;BME280;5819;49.648;8.330;2023-01-28T04:13:16;101310.81;;;2.33;100.00
11525;BME280;5819;49.648;8.330;2023-01-28T04:15:44;101302.28;;;2.31;100.00
11525;BME280;5819;49.648;8.330;2023-01-28T04:18:14;101309.19;;;2.40;100.00
11525;BME280;5819;49.648;8.330;2023-01-28T04:20:43;101316.09;;;2.48;100.00
11525;BME280;5819;49.648;8.330;2023-01-28T04:23:11;101307.59;;;2.63;100.00
11525;BME280;5819;49.648;8.330;2023-01-28T04:25:38;101320.47;;;2.64;100.00
11525;BME280;5819;49.648;8.330;2023-01-28T04:28:08;101319.34;;;2.26;100.00
11525;BME280;5819;49.648;8.330;2023-01-28T04:30:36;101311.81;;;2.53;100.00
11525;BME280;5819;49.648;8.330;2023-01-28T04:33:21;101313.47;;;2.45;100.00
11525;BME280;5819;49.648;8.330;2023-01-28T04:35:51;101316.94;;;2.50;100.00
11525;BME280;5819;49.648;8.330;2023-01-28T04:38:35;101317.69;;;2.32;100.00
11525;BME280;5819;49.648;8.330;2023-01-28T04:41:22;101321.28;;;2.63;100.00
11525;BME280;5819;49.648;8.330;2023-01-28T04:43:50;101327.94;;;2.34;100.00
11525;BME280;5819;49.648;8.330;2023-01-28T04:46:24;101321.91;;;2.23;100.00
11525;BME280;5819;49.648;8.330;2023-01-28T04:48:59;101317.59;;;2.22;100.00
11525;BME280;5819;49.648;8.330;2023-01-28T04:51:47;101323.66;;;2.33;100.00
11525;BME280;5819;49.648;8.330;2023-01-28T04:54:18;101324.47;;;2.23;100.00
11525;BME280;5819;49.648;8.330;2023-01-28T04:56:47;101329.63;;;2.27;100.00
11525;BME280;5819;49.648;8.330;2023-01-28T04:59:15;101325.41;;;2.32;100.00
11525;BME280;5819;49.648;8.330;2023-01-28T05:01:43;101321.06;;;2.27;100.00
11525;BME280;5819;49.648;8.330;2023-01-28T05:04:11;101329.63;;;2.29;100.00
11525;BME280;5819;49.648;8.330;2023-01-28T05:06:39;101331.41;;;2.36;100.00
11525;BME280;5819;49.648;8.330;2023-01-28T05:09:23;101330.44;;;2.22;100.00
11525;BME280;5819;49.648;8.330;2023-01-28T05:11:51;101327.19;;;2.44;100.00
11525;BME280;5819;49.648;8.330;2023-01-28T05:14:19;101332.16;;;2.23;100.00
11525;BME280;5819;49.648;8.330;2023-01-28T05:17:03;101335.53;;;2.16;100.00
11525;BME280;5819;49.648;8.330;2023-01-28T05:19:31;101341.59;;;2.25;100.00
11525;BME280;5819;49.648;8.330;2023-01-28T05:22:00;101336.44;;;2.22;100.00
11525;BME280;5819;49.648;8.330;2023-01-28T05:24:44;101339.88;;;2.23;100.00
11525;BME280;5819;49.648;8.330;2023-01-28T05:27:12;101342.44;;;2.26;100.00
11525;BME280;5819;49.648;8.330;2023-01-28T05:29:41;101343.22;;;2.17;100.00
11525;BME280;5819;49.648;8.330;2023-01-28T05:32:09;101346.75;;;2.33;100.00
11525;BME280;5819;49.648;8.330;2023-01-28T05:34:37;101350.13;;;2.20;100.00
11525;BME280;5819;49.648;8.330;2023-01-28T05:37:10;101344.97;;;2.21;100.00
11525;BME280;5819;49.648;8.330;2023-01-28T05:39:39;101351.06;;;2.32;100.00
11525;BME280;5819;49.648;8.330;2023-01-28T05:42:09;101355.38;;;2.41;100.00
11525;BME280;5819;49.648;8.330;2023-01-28T05:44:42;101364.72;;;2.28;100.00
11525;BME280;5819;49.648;8.330;2023-01-28T05:47:29;101363.16;;;2.53;100.00
11525;BME280;5819;49.648;8.330;2023-01-28T05:50:15;101369.88;;;2.34;100.00
11525;BME280;5819;49.648;8.330;2023-01-28T05:53:04;101368.19;;;2.38;100.00
11525;BME280;5819;49.648;8.330;2023-01-28T05:55:33;101375.00;;;2.31;100.00
11525;BME280;5819;49.648;8.330;2023-01-28T05:58:03;101369.84;;;2.30;100.00
11525;BME280;5819;49.648;8.330;2023-01-28T06:00:31;101374.97;;;2.30;100.00
11525;BME280;5819;49.648;8.330;2023-01-28T06:03:02;101380.19;;;2.36;100.00
11525;BME280;5819;49.648;8.330;2023-01-28T06:05:30;101374.03;;;2.17;100.00
11525;BME280;5819;49.648;8.330;2023-01-28T06:08:00;101386.84;;;2.14;100.00
11525;BME280;5819;49.648;8.330;2023-01-28T06:10:28;101393.03;;;2.42;100.00
11525;BME280;5819;49.648;8.330;2023-01-28T06:12:56;101396.59;;;2.59;100.00
11525;BME280;5819;49.648;8.330;2023-01-28T06:15:58;101393.81;;;2.30;100.00
11525;BME280;5819;49.648;8.330;2023-01-28T06:18:40;101398.84;;;2.18;100.00
11525;BME280;5819;49.648;8.330;2023-01-28T06:21:08;101407.34;;;2.08;100.00
11525;BME280;5819;49.648;8.330;2023-01-28T06:23:36;101404.84;;;2.19;100.00
11525;BME280;5819;49.648;8.330;2023-01-28T06:26:07;101403.34;;;2.45;100.00
11525;BME280;5819;49.648;8.330;2023-01-28T06:28:37;101416.06;;;2.28;100.00
11525;BME280;5819;49.648;8.330;2023-01-28T06:31:06;101416.72;;;2.08;100.00
11525;BME280;5819;49.648;8.330;2023-01-28T06:33:34;101413.50;;;2.33;100.00
11525;BME280;5819;49.648;8.330;2023-01-28T06:36:04;101420.28;;;2.20;100.00
11525;BME280;5819;49.648;8.330;2023-01-28T06:38:32;101422.91;;;2.31;100.00
11525;BME280;5819;49.648;8.330;2023-01-28T06:41:01;101434.69;;;2.09;100.00
11525;BME280;5819;49.648;8.330;2023-01-28T06:43:29;101423.75;;;2.27;100.00
11525;BME280;5819;49.648;8.330;2023-01-28T06:45:57;101432.16;;;2.14;100.00
11525;BME280;5819;49.648;8.330;2023-01-28T06:48:28;101434.72;;;2.14;100.00
11525;BME280;5819;49.648;8.330;2023-01-28T06:50:56;101446.66;;;2.09;100.00
11525;BME280;5819;49.648;8.330;2023-01-28T06:53:24;101438.13;;;2.13;100.00
11525;BME280;5819;49.648;8.330;2023-01-28T06:55:52;101440.63;;;2.04;100.00
11525;BME280;5819;49.648;8.330;2023-01-28T06:58:20;101448.66;;;2.40;100.00
11525;BME280;5819;49.648;8.330;2023-01-28T07:00:47;101446.00;;;2.29;100.00
11525;BME280;5819;49.648;8.330;2023-01-28T07:03:15;101445.22;;;2.37;100.00
11525;BME280;5819;49.648;8.330;2023-01-28T07:05:44;101453.81;;;2.42;100.00
11525;BME280;5819;49.648;8.330;2023-01-28T07:08:12;101450.28;;;2.30;100.00
11525;BME280;5819;49.648;8.330;2023-01-28T07:10:40;101447.66;;;2.23;100.00
11525;BME280;5819;49.648;8.330;2023-01-28T07:13:09;101453.56;;;2.17;100.00
11525;BME280;5819;49.648;8.330;2023-01-28T07:15:37;101452.69;;;2.14;100.00
11525;BME280;5819;49.648;8.330;2023-01-28T07:18:05;101451.81;;;2.10;100.00
11525;BME280;5819;49.648;8.330;2023-01-28T07:20:32;101450.22;;;2.20;100.00
11525;BME280;5819;49.648;8.330;2023-01-28T07:23:02;101448.66;;;2.40;100.00
11525;BME280;5819;49.648;8.330;2023-01-28T07:25:30;101454.44;;;2.15;100.00
11525;BME280;5819;49.648;8.330;2023-01-28T07:27:57;101452.75;;;2.21;100.00
11525;BME280;5819;49.648;8.330;2023-01-28T07:30:25;101447.69;;;2.29;100.00
11525;BME280;5819;49.648;8.330;2023-01-28T07:32:53;101452.75;;;2.21;100.00
11525;BME280;5819;49.648;8.330;2023-01-28T07:35:22;101452.72;;;2.15;100.00
11525;BME280;5819;49.648;8.330;2023-01-28T07:37:50;101452.69;;;2.14;100.00
11525;BME280;5819;49.648;8.330;2023-01-28T07:40:20;101460.47;;;2.20;100.00
11525;BME280;5819;49.648;8.330;2023-01-28T07:42:49;101463.91;;;2.23;100.00
11525;BME280;5819;49.648;8.330;2023-01-28T07:45:20;101468.13;;;2.15;100.00
11525;BME280;5819;49.648;8.330;2023-01-28T07:47:53;101461.25;;;2.14;100.00
11525;BME280;5819;49.648;8.330;2023-01-28T07:50:21;101457.84;;;2.12;100.00
11525;BME280;5819;49.648;8.330;2023-01-28T07:52:49;101468.13;;;2.15;100.00
11525;BME280;5819;49.648;8.330;2023-01-28T07:55:17;101461.50;;;2.42;100.00
11525;BME280;5819;49.648;8.330;2023-01-28T07:57:51;101468.34;;;2.37;100.00
11525;BME280;5819;49.648;8.330;2023-01-28T08:00:21;101470.78;;;2.29;100.00
11525;BME280;5819;49.648;8.330;2023-01-28T08:02:54;101474.31;;;2.39;100.00
11525;BME280;5819;49.648;8.330;2023-01-28T08:05:23;101476.03;;;2.37;100.00
11525;BME280;5819;49.648;8.330;2023-01-28T08:07:53;101477.03;;;2.52;100.00
11525;BME280;5819;49.648;8.330;2023-01-28T08:10:21;101482.97;;;2.48;100.00
11525;BME280;5819;49.648;8.330;2023-01-28T08:12:54;101487.22;;;2.46;100.00
11525;BME280;5819;49.648;8.330;2023-01-28T08:15:24;101483.91;;;2.56;100.00
11525;BME280;5819;49.648;8.330;2023-01-28T08:17:53;101482.09;;;2.46;100.00
11525;BME280;5819;49.648;8.330;2023-01-28T08:20:21;101493.97;;;2.35;100.00
11525;BME280;5819;49.648;8.330;2023-01-28T08:22:49;101487.97;;;2.34;100.00
11525;BME280;5819;49.648;8.330;2023-01-28T08:25:17;101486.31;;;2.41;100.00
11525;BME280;5819;49.648;8.330;2023-01-28T08:27:45;101492.25;;;2.37;100.00
11525;BME280;5819;49.648;8.330;2023-01-28T08:30:14;101492.38;;;2.45;100.00
11525;BME280;5819;49.648;8.330;2023-01-28T08:32:43;101483.13;;;2.66;100.00
11525;BME280;5819;49.648;8.330;2023-01-28T08:35:11;101492.41;;;2.51;100.00
11525;BME280;5819;49.648;8.330;2023-01-28T08:37:39;101488.28;;;2.68;100.00
11525;BME280;5819;49.648;8.330;2023-01-28T08:40:08;101494.28;;;2.73;100.00
11525;BME280;5819;49.648;8.330;2023-01-28T08:42:37;101494.28;;;2.70;100.00
11525;BME280;5819;49.648;8.330;2023-01-28T08:45:06;101484.25;;;3.05;100.00
11525;BME280;5819;49.648;8.330;2023-01-28T08:47:35;101483.19;;;2.77;100.00
11525;BME280;5819;49.648;8.330;2023-01-28T08:50:04;101485.00;;;2.89;100.00
11525;BME280;5819;49.648;8.330;2023-01-28T08:52:32;101483.25;;;2.86;100.00
11525;BME280;5819;49.648;8.330;2023-01-28T08:54:59;101489.22;;;2.82;100.00
11525;BME280;5819;49.648;8.330;2023-01-28T08:57:27;101489.31;;;2.91;100.00
11525;BME280;5819;49.648;8.330;2023-01-28T08:59:55;101489.25;;;2.83;100.00
11525;BME280;5819;49.648;8.330;2023-01-28T09:02:23;101493.56;;;2.89;100.00
11525;BME280;5819;49.648;8.330;2023-01-28T09:04:59;101487.63;;;2.98;100.00
11525;BME280;5819;49.648;8.330;2023-01-28T09:07:27;101492.72;;;2.93;100.00
11525;BME280;5819;49.648;8.330;2023-01-28T09:09:55;101481.75;;;3.15;100.00
11525;BME280;5819;49.648;8.330;2023-01-28T09:12:23;101489.44;;;3.12;100.00
11525;BME280;5819;49.648;8.330;2023-01-28T09:14:50;101493.66;;;3.03;100.00
11525;BME280;5819;49.648;8.330;2023-01-28T09:17:19;101497.19;;;3.21;100.00
11525;BME280;5819;49.648;8.330;2023-01-28T09:19:48;101487.94;;;3.48;100.00
11525;BME280;5819;49.648;8.330;2023-01-28T09:22:17;101495.50;;;3.20;100.00
11525;BME280;5819;49.648;8.330;2023-01-28T09:24:45;101494.63;;;3.17;100.00
11525;BME280;5819;49.648;8.330;2023-01-28T09:27:13;101500.69;;;3.34;100.00
11525;BME280;5819;49.648;8.330;2023-01-28T09:29:41;101503.06;;;3.02;100.00
11525;BME280;5819;49.648;8.330;2023-01-28T09:32:09;101509.00;;;2.91;100.00
11525;BME280;5819;49.648;8.330;2023-01-28T09:34:37;101510.75;;;2.98;100.00
11525;BME280;5819;49.648;8.330;2023-01-28T09:37:05;101515.94;;;3.02;100.00
11525;BME280;5819;49.648;8.330;2023-01-28T09:39:34;101517.75;;;3.18;100.00
11525;BME280;5819;49.648;8.330;2023-01-28T09:42:26;101519.34;;;3.01;100.00
11525;BME280;5819;49.648;8.330;2023-01-28T09:45:08;101510.13;;;3.30;100.00
11525;BME280;5819;49.648;8.330;2023-01-28T09:47:41;101508.44;;;3.42;100.00
11525;BME280;5819;49.648;8.330;2023-01-28T09:50:17;101518.63;;;3.25;100.00
11525;BME280;5819;49.648;8.330;2023-01-28T09:52:47;101522.00;;;3.09;100.00
11525;BME280;5819;49.648;8.330;2023-01-28T09:55:24;101522.91;;;3.21;100.00
11525;BME280;5819;49.648;8.330;2023-01-28T09:57:57;101518.72;;;3.33;100.00
11525;BME280;5819;49.648;8.330;2023-01-28T10:00:29;101513.69;;;3.61;100.00
11525;BME280;5819;49.648;8.330;2023-01-28T10:03:11;101526.41;;;3.28;100.00
11525;BME280;5819;49.648;8.330;2023-01-28T10:05:49;101520.38;;;3.27;100.00
11525;BME280;5819;49.648;8.330;2023-01-28T10:08:29;101523.78;;;3.25;100.00
11525;BME280;5819;49.648;8.330;2023-01-28T10:11:07;101523.69;;;3.10;100.00
11525;BME280;5819;49.648;8.330;2023-01-28T10:13:44;101521.38;;;3.48;100.00
11525;BME280;5819;49.648;8.330;2023-01-28T10:16:19;101527.19;;;3.22;100.00
11525;BME280;5819;49.648;8.330;2023-01-28T10:18:55;101538.25;;;3.08;100.00
11525;BME280;5819;49.648;8.330;2023-01-28T10:21:26;101530.69;;;3.30;100.00
11525;BME280;5819;49.648;8.330;2023-01-28T10:23:59;101523.84;;;3.37;100.00
11525;BME280;5819;49.648;8.330;2023-01-28T10:26:34;101522.94;;;3.26;100.00
11525;BME280;5819;49.648;8.330;2023-01-28T10:29:11;101533.22;;;3.23;100.00
11525;BME280;5819;49.648;8.330;2023-01-28T10:31:43;101535.78;;;3.23;100.00
11525;BME280;5819;49.648;8.330;2023-01-28T10:34:14;101522.16;;;3.39;100.00
11525;BME280;5819;49.648;8.330;2023-01-28T10:36:45;101528.13;;;3.32;100.00
11525;BME280;5819;49.648;8.330;2023-01-28T10:39:14;101534.94;;;3.21;100.00
11525;BME280;5819;49.648;8.330;2023-01-28T10:41:45;101537.50;;;3.21;100.00
11525;BME280;5819;49.648;8.330;2023-01-28T10:44:29;101539.06;;;3.01;100.00
11525;BME280;5819;49.648;8.330;2023-01-28T10:47:01;101540.88;;;3.18;100.00
11525;BME280;5819;49.648;8.330;2023-01-28T10:49:30;101541.78;;;3.26;100.00
11525;BME280;5819;49.648;8.330;2023-01-28T10:52:09;101539.03;;;2.99;100.00
11525;BME280;5819;49.648;8.330;2023-01-28T10:54:37;101542.50;;;3.06;100.00
11525;BME280;5819;49.648;8.330;2023-01-28T10:57:10;101544.31;;;3.19;100.00
11525;BME280;5819;49.648;8.330;2023-01-28T10:59:39;101544.31;;;3.19;100.00
11525;BME280;5819;49.648;8.330;2023-01-28T11:02:27;101542.72;;;3.36;100.00
11525;BME280;5819;49.648;8.330;2023-01-28T11:05:03;101535.81;;;3.30;99.22
11525;BME280;5819;49.648;8.330;2023-01-28T11:07:32;101544.44;;;3.36;100.00
11525;BME280;5819;49.648;8.330;2023-01-28T11:10:00;101544.44;;;3.33;100.00
11525;BME280;5819;49.648;8.330;2023-01-28T11:12:30;101545.34;;;3.41;99.60
11525;BME280;5819;49.648;8.330;2023-01-28T11:14:59;101544.28;;;3.14;98.34
11525;BME280;5819;49.648;8.330;2023-01-28T11:17:30;101547.69;;;3.09;99.89
11525;BME280;5819;49.648;8.330;2023-01-28T11:20:11;101549.50;;;3.25;100.00
11525;BME280;5819;49.648;8.330;2023-01-28T11:22:41;101553.88;;;3.40;100.00
11525;BME280;5819;49.648;8.330;2023-01-28T11:25:16;101543.69;;;3.55;99.22
11525;BME280;5819;49.648;8.330;2023-01-28T11:27:48;101553.09;;;3.48;97.67
11525;BME280;5819;49.648;8.330;2023-01-28T11:30:20;101544.41;;;3.31;97.85
11525;BME280;5819;49.648;8.330;2023-01-28T11:32:54;101542.72;;;3.36;98.21
11525;BME280;5819;49.648;8.330;2023-01-28T11:35:25;101540.13;;;3.28;98.76
11525;BME280;5819;49.648;8.330;2023-01-28T11:37:54;101546.19;;;3.40;98.59
11525;BME280;5819;49.648;8.330;2023-01-28T11:40:22;101537.75;;;3.65;98.64
11525;BME280;5819;49.648;8.330;2023-01-28T11:42:53;101523.13;;;3.59;98.12
11525;BME280;5819;49.648;8.330;2023-01-28T11:45:33;101530.78;;;3.47;97.70
11525;BME280;5819;49.648;8.330;2023-01-28T11:48:14;101526.66;;;3.83;96.86
11525;BME280;5819;49.648;8.330;2023-01-28T11:50:51;101520.63;;;3.73;95.39
11525;BME280;5819;49.648;8.330;2023-01-28T11:53:34;101507.81;;;3.94;94.08
11525;BME280;5819;49.648;8.330;2023-01-28T11:56:18;101527.50;;;3.72;95.31
11525;BME280;5819;49.648;8.330;2023-01-28T11:59:00;101520.66;;;3.82;97.54
11525;BME280;5819;49.648;8.330;2023-01-28T12:01:35;101523.19;;;3.71;96.97
11525;BME280;5819;49.648;8.330;2023-01-28T12:04:20;101523.06;;;3.47;97.61
11525;BME280;5819;49.648;8.330;2023-01-28T12:06:59;101511.16;;;3.67;97.05
11525;BME280;5819;49.648;8.330;2023-01-28T12:09:36;101510.31;;;3.67;94.92
11525;BME280;5819;49.648;8.330;2023-01-28T12:12:19;101516.28;;;3.57;95.93
11525;BME280;5819;49.648;8.330;2023-01-28T12:15:11;101512.81;;;3.58;95.42
11525;BME280;5819;49.648;8.330;2023-01-28T12:17:53;101509.41;;;3.56;95.58
11525;BME280;5819;49.648;8.330;2023-01-28T12:20:27;101501.72;;;3.60;94.77
11525;BME280;5819;49.648;8.330;2023-01-28T12:23:18;101501.66;;;3.57;94.41
11525;BME280;5819;49.648;8.330;2023-01-28T12:26:04;101504.28;;;3.62;95.31
11525;BME280;5819;49.648;8.330;2023-01-28T12:28:55;101508.53;;;3.58;96.69
11525;BME280;5819;49.648;8.330;2023-01-28T12:31:41;101497.47;;;3.73;95.39
11525;BME280;5819;49.648;8.330;2023-01-28T12:34:36;101511.88;;;3.42;97.11
11525;BME280;5819;49.648;8.330;2023-01-28T12:37:13;101508.53;;;3.58;96.84
11525;BME280;5819;49.648;8.330;2023-01-28T12:39:58;101494.88;;;3.71;94.92
11525;BME280;5819;49.648;8.330;2023-01-28T12:42:34;101502.50;;;3.47;95.57
11525;BME280;5819;49.648;8.330;2023-01-28T12:45:14;101506.72;;;3.36;97.29
11525;BME280;5819;49.648;8.330;2023-01-28T12:47:48;101493.09;;;3.55;95.10
11525;BME280;5819;49.648;8.330;2023-01-28T12:50:19;101505.00;;;3.38;96.00
11525;BME280;5819;49.648;8.330;2023-01-28T12:52:53;101506.72;;;3.36;96.72
11525;BME280;5819;49.648;8.330;2023-01-28T12:55:34;101501.53;;;3.33;97.62
11525;BME280;5819;49.648;8.330;2023-01-28T12:58:04;101498.97;;;3.33;96.42
11525;BME280;5819;49.648;8.330;2023-01-28T13:00:36;101494.75;;;3.37;95.83
11525;BME280;5819;49.648;8.330;2023-01-28T13:03:14;101498.97;;;3.32;94.98
11525;BME280;5819;49.648;8.330;2023-01-28T13:05:48;101510.84;;;3.10;97.08
11525;BME280;5819;49.648;8.330;2023-01-28T13:08:21;101502.31;;;3.12;96.84
11525;BME280;5819;49.648;8.330;2023-01-28T13:10:50;101501.44;;;3.12;96.63
11525;BME280;5819;49.648;8.330;2023-01-28T13:13:26;101503.19;;;3.16;96.53
11525;BME280;5819;49.648;8.330;2023-01-28T13:15:55;101509.09;;;3.03;96.54
11525;BME280;5819;49.648;8.330;2023-01-28T13:18:32;101502.22;;;3.00;97.45
11525;BME280;5819;49.648;8.330;2023-01-28T13:21:01;101508.97;;;2.85;99.14
11525;BME280;5819;49.648;8.330;2023-01-28T13:23:39;101507.31;;;2.96;99.21
11525;BME280;5819;49.648;8.330;2023-01-28T13:26:23;101516.66;;;2.83;100.00
11525;BME280;5819;49.648;8.330;2023-01-28T13:29:05;101510.00;;;3.12;97.46
11525;BME280;5819;49.648;8.330;2023-01-28T13:31:37;101509.84;;;2.90;97.75
11525;BME280;5819;49.648;8.330;2023-01-28T13:34:08;101517.66;;;3.03;98.61
11525;BME280;5819;49.648;8.330;2023-01-28T13:36:38;101521.94;;;3.06;97.20